クアラルンプール の空港の天気 - METARとTAF

クアラルンプール国際空港 ( WMKK / KUL ) - マレーシア スランゴール州セパン
飛行場実況気象(Metar)
観測時間06/18 15:30 MYT (06/18 07:30 UTC)
風向・風速南南東 3m/s
視程10km以上
天気現象
少しの雲 雲底高度 550m
全天の4割程度の雲 雲底高度 4270m
全天の8割程度の雲 雲底高度 8530m
気温31℃
湿度70%
気圧1007hPa
METARWMKK 180730Z 16005KT 120V210 9999 FEW018 SCT140 BKN280 31/25 Q1007 NOSIG
過去の天気等 Google飛行場航空写真 Wunderground天気予報

過去48時間のMETAR

飛行場予報(TAF)
発表時間: 6/18 13:00 MYT (6/18 05:00 UTC)
予報対象時間: 18日14時 MYT ~ 19日20時 MYT
風向・風速不定 1m/s
視程10km以上
少しの雲 雲底高度 550m
18日18時 MYT ~ 18日20時 MYT に徐々に
少しの雲 雲底高度 910m
19日3時 MYT ~ 19日7時 MYT に一時的に
風向・風速北北西 5m/s 瞬間風速 13m/s
視程2000m
天気現象雷雨
少しの雲 雲底高度 180m
少しの積乱雲 雲底高度 520m
全天の4割程度の雲 雲底高度 610m
TAF WMKK 180500Z 1806/1912 VRB02KT 9999 FEW018
BECMG 1810/1812 FEW030
TEMPO 1819/1823 34010G25KT 2000 TSRA FEW006 FEW017CB SCT020